Time;durP1;ratioP1;P1;durP2;ratioP2;P2;SDS_P1;SDS_P2;PMS_P1;PMS_P2;Temp;Humidity;BMP_temperature;BMP_pressure;BME280_temperature;BME280_humidity;BME280_pressure;Samples;Min_cycle;Max_cycle;Signal;HPM_P1;HPM_P2
2022/08/26 00:02:16;;;;;;;4.00;3.70;;;;;;;22.84;63.87;98329.38;5078884;27;103100;-62
2022/08/26 00:04:48;;;;;;;4.80;4.40;;;;;;;22.82;64.93;98316.09;5060948;27;103229;-62
2022/08/26 00:07:19;;;;;;;5.20;4.70;;;;;;;22.73;65.47;98314.59;5078093;27;102585;-63
2022/08/26 00:09:48;;;;;;;5.57;5.18;;;;;;;22.45;67.19;98308.34;5083196;27;103314;-63
2022/08/26 00:12:17;;;;;;;5.47;5.00;;;;;;;22.38;67.69;98311.00;5082670;27;103383;-63
2022/08/26 00:14:59;;;;;;;4.45;4.15;;;;;;;22.49;67.14;98307.75;5078485;27;103228;-62
2022/08/26 00:17:28;;;;;;;4.22;3.90;;;;;;;22.60;66.33;98301.00;5082526;27;102944;-62
2022/08/26 00:20:00;;;;;;;4.88;4.47;;;;;;;22.63;65.57;98307.84;5083241;27;102762;-62
2022/08/26 00:22:31;;;;;;;3.90;3.60;;;;;;;22.64;65.36;98309.56;5077368;27;103317;-62
2022/08/26 00:25:00;;;;;;;4.13;3.83;;;;;;;22.69;64.87;98307.09;5079745;27;103202;-62
2022/08/26 00:27:32;;;;;;;5.30;4.80;;;;;;;22.64;65.66;98304.19;5077962;27;102991;-62
2022/08/26 00:30:05;;;;;;;5.60;5.10;;;;;;;22.46;66.54;98302.75;5083020;27;102654;-62
2022/08/26 00:32:35;;;;;;;7.77;5.77;;;;;;;22.13;67.98;98307.03;5081621;27;103462;-62
2022/08/26 00:35:06;;;;;;;6.50;5.90;;;;;;;21.81;68.82;98302.97;5077124;27;103260;-63
2022/08/26 00:37:36;;;;;;;5.00;4.60;;;;;;;22.09;67.35;98311.13;5081843;27;102617;-62
2022/08/26 00:40:10;;;;;;;5.60;5.10;;;;;;;22.14;67.03;98308.72;5083031;27;104164;-62
2022/08/26 00:42:38;;;;;;;5.70;5.20;;;;;;;21.71;69.61;98312.38;5080063;27;103279;-62
2022/08/26 00:45:15;;;;;;;6.72;6.18;;;;;;;21.43;70.24;98308.75;5082247;27;103217;-62
2022/08/26 00:47:48;;;;;;;7.15;6.30;;;;;;;21.18;72.16;98306.38;5082813;27;102728;-62
2022/08/26 00:50:22;;;;;;;5.77;5.27;;;;;;;21.67;70.21;98316.47;5079740;27;102912;-63
2022/08/26 00:52:55;;;;;;;5.25;4.85;;;;;;;21.97;67.70;98312.69;5074319;27;103342;-62
2022/08/26 00:55:30;;;;;;;4.47;4.07;;;;;;;22.10;67.07;98317.34;5059777;27;103269;-62
2022/08/26 00:58:06;;;;;;;5.60;5.10;;;;;;;22.08;67.59;98327.47;5075549;27;103072;-63
2022/08/26 01:00:36;;;;;;;5.38;4.97;;;;;;;22.01;68.03;98323.91;5063846;27;102768;-62
2022/08/26 01:03:06;;;;;;;6.88;6.28;;;;;;;21.25;72.19;98328.78;5074127;27;103355;-62
2022/08/26 01:05:40;;;;;;;6.78;6.18;;;;;;;21.52;70.96;98323.75;5063392;27;103476;-63
2022/08/26 01:08:11;;;;;;;6.22;5.63;;;;;;;21.73;69.78;98318.38;5078405;27;102694;-62
2022/08/26 01:10:41;;;;;;;6.07;5.57;;;;;;;21.90;68.94;98317.16;5079441;27;102615;-62
2022/08/26 01:13:14;;;;;;;5.53;5.07;;;;;;;21.92;68.68;98320.50;5081649;27;103226;-62
2022/08/26 01:15:46;;;;;;;4.18;3.88;;;;;;;22.01;67.07;98315.84;5076481;27;103330;-62
2022/08/26 01:18:18;;;;;;;4.63;4.32;;;;;;;22.04;67.52;98312.72;5081242;27;102659;-62
2022/08/26 01:20:58;;;;;;;4.15;3.85;;;;;;;22.09;66.54;98321.88;5079734;27;103703;-62
2022/08/26 01:23:32;;;;;;;5.67;5.20;;;;;;;22.09;66.98;98316.50;5060731;27;103870;-62
2022/08/26 01:26:07;;;;;;;5.70;5.20;;;;;;;22.03;67.39;98311.94;5078740;27;105276;-62
2022/08/26 01:28:49;;;;;;;6.63;6.03;;;;;;;21.81;69.17;98310.22;5080480;27;102657;-62
2022/08/26 01:31:23;;;;;;;6.90;6.30;;;;;;;21.52;70.81;98313.81;5080380;27;103347;-62
2022/08/26 01:34:02;;;;;;;7.05;6.35;;;;;;;21.21;71.79;98316.75;5076403;27;103568;-62
2022/08/26 01:36:31;;;;;;;6.40;5.80;;;;;;;21.38;71.40;98312.00;5073337;27;103343;-62
2022/08/26 01:39:03;;;;;;;5.10;4.65;;;;;;;21.66;69.35;98312.13;5081764;27;103000;-62
2022/08/26 01:41:36;;;;;;;4.40;4.00;;;;;;;21.79;68.92;98317.63;5077210;27;103858;-62
2022/08/26 01:44:09;;;;;;;4.80;4.40;;;;;;;21.87;67.59;98314.84;5079741;27;103314;-73
2022/08/26 01:46:38;;;;;;;5.65;5.20;;;;;;;21.89;68.05;98308.25;5081249;27;103191;-72
2022/08/26 01:49:08;;;;;;;4.07;3.78;;;;;;;21.92;67.52;98312.44;5075961;27;102583;-72
2022/08/26 01:51:39;;;;;;;5.47;5.05;;;;;;;21.86;68.12;98316.69;5081862;27;102970;-72
2022/08/26 01:54:10;;;;;;;5.15;4.70;;;;;;;21.73;68.97;98315.69;5081204;27;103552;-72
2022/08/26 01:56:40;;;;;;;6.77;6.07;;;;;;;21.43;70.68;98314.13;5077939;27;103276;-72
2022/08/26 01:59:14;;;;;;;5.45;4.95;;;;;;;21.50;70.44;98320.41;5095674;27;102681;-72
2022/08/26 02:01:45;;;;;;;6.00;5.50;;;;;;;21.66;68.85;98314.81;5075998;27;102657;-73
2022/08/26 02:04:21;;;;;;;4.82;4.43;;;;;;;21.70;68.61;98316.91;5079175;27;103239;-73
2022/08/26 02:06:52;;;;;;;5.15;4.75;;;;;;;21.69;68.89;98320.66;5077790;27;103248;-72
2022/08/26 02:09:24;;;;;;;8.25;6.45;;;;;;;21.33;71.14;98320.59;5056572;27;103019;-72
2022/08/26 02:11:55;;;;;;;4.93;4.53;;;;;;;21.48;70.57;98327.81;5080911;27;104026;-72
2022/08/26 02:14:28;;;;;;;4.10;3.80;;;;;;;21.62;68.95;98324.25;5074923;27;103213;-72
2022/08/26 02:16:58;;;;;;;4.30;4.00;;;;;;;21.71;68.38;98321.28;5078533;27;103008;-72
2022/08/26 02:19:31;;;;;;;5.13;4.73;;;;;;;21.76;68.05;98323.38;5061742;27;102904;-72
2022/08/26 02:22:03;;;;;;;6.10;5.60;;;;;;;21.62;69.38;98325.09;5058355;27;102678;-73
2022/08/26 02:24:51;;;;;;;5.22;4.72;;;;;;;21.61;68.94;98319.94;5078002;27;103927;-72
2022/08/26 02:27:23;;;;;;;5.15;4.75;;;;;;;21.60;69.16;98326.31;5080982;27;104033;-73
2022/08/26 02:29:59;;;;;;;7.23;6.50;;;;;;;21.09;71.87;98323.59;5059838;27;102702;-72
2022/08/26 02:32:29;;;;;;;6.55;5.97;;;;;;;21.02;71.95;98327.19;5078245;27;102630;-72
2022/08/26 02:35:01;;;;;;;8.20;6.22;;;;;;;21.18;71.68;98327.88;5079344;27;103260;-73
2022/08/26 02:37:31;;;;;;;5.78;5.35;;;;;;;21.23;71.12;98328.13;5078232;27;103499;-72
2022/08/26 02:40:05;;;;;;;6.28;5.68;;;;;;;21.20;71.22;98322.28;5080989;27;103218;-73
2022/08/26 02:42:36;;;;;;;7.07;6.40;;;;;;;21.01;72.60;98317.47;5078890;27;102744;-72
2022/08/26 02:45:06;;;;;;;6.13;5.63;;;;;;;20.86;73.50;98306.72;5071007;27;103955;-72
2022/08/26 02:47:36;;;;;;;6.38;5.45;;;;;;;21.01;73.00;98315.63;5079406;27;103198;-73
2022/08/26 02:50:06;;;;;;;4.53;4.23;;;;;;;21.23;70.29;98314.69;5076727;27;102826;-72
2022/08/26 02:52:36;;;;;;;4.82;4.43;;;;;;;21.30;70.18;98304.88;5074625;27;102685;-73
2022/08/26 02:55:08;;;;;;;4.45;4.15;;;;;;;21.35;69.63;98310.53;5076246;27;103235;-72
2022/08/26 02:57:36;;;;;;;6.10;5.50;;;;;;;21.33;70.21;98315.22;5072859;27;103558;-72
2022/08/26 03:00:09;;;;;;;6.85;6.25;;;;;;;21.25;70.52;98309.97;5081023;27;103242;-72
2022/08/26 03:02:41;;;;;;;6.07;5.53;;;;;;;21.23;70.68;98309.34;5058615;27;102958;-73
2022/08/26 03:05:11;;;;;;;6.28;5.78;;;;;;;21.12;71.57;98312.50;5057885;27;103240;-73
2022/08/26 03:07:41;;;;;;;6.15;5.65;;;;;;;21.12;71.06;98317.88;5075743;27;103345;-72
2022/08/26 03:10:13;;;;;;;6.50;5.80;;;;;;;20.96;72.73;98309.97;5056733;27;102595;-72
2022/08/26 03:12:44;;;;;;;6.00;5.50;;;;;;;20.93;72.41;98310.34;5076315;27;103829;-73
2022/08/26 03:15:16;;;;;;;8.37;7.47;;;;;;;20.43;75.17;98304.84;5080017;27;103243;-72
2022/08/26 03:17:48;;;;;;;8.35;7.38;;;;;;;20.11;76.83;98298.72;5077727;27;103286;-72
2022/08/26 03:20:18;;;;;;;7.35;6.60;;;;;;;20.44;75.37;98301.13;5077839;27;102581;-73
2022/08/26 03:22:50;;;;;;;6.80;6.20;;;;;;;20.60;73.81;98295.63;5080573;27;102744;-72
2022/08/26 03:25:21;;;;;;;7.75;6.95;;;;;;;20.54;74.95;98299.03;5077685;27;103247;-72
2022/08/26 03:27:52;;;;;;;7.45;6.85;;;;;;;20.61;74.34;98302.63;5074589;27;103252;-72
2022/08/26 03:30:40;;;;;;;7.97;7.17;;;;;;;20.62;73.96;98298.94;5073884;27;102878;-72
2022/08/26 03:33:14;;;;;;;10.75;8.02;;;;;;;20.27;76.20;98300.44;5074700;27;102595;-72
2022/08/26 03:35:46;;;;;;;8.10;7.35;;;;;;;19.98;78.67;98301.19;5076480;27;103894;-72
2022/08/26 03:38:19;;;;;;;8.80;7.90;;;;;;;19.43;81.05;98305.88;5073027;27;103239;-72
2022/08/26 03:40:51;;;;;;;8.27;7.47;;;;;;;19.64;80.63;98308.78;5071204;27;102524;-72
2022/08/26 03:43:25;;;;;;;7.65;6.88;;;;;;;20.12;78.56;98308.44;5060756;27;102731;-72
2022/08/26 03:45:56;;;;;;;7.67;6.97;;;;;;;20.37;76.62;98301.03;5060566;27;103275;-72
2022/08/26 03:48:24;;;;;;;8.25;7.45;;;;;;;20.39;77.25;98303.53;5080342;27;102972;-62
2022/08/26 03:50:52;;;;;;;9.18;8.30;;;;;;;20.28;77.67;98302.13;5078677;27;102610;-62
2022/08/26 03:53:20;;;;;;;8.18;7.47;;;;;;;20.19;78.54;98304.00;5079936;27;102712;-62
2022/08/26 03:55:49;;;;;;;7.90;7.10;;;;;;;20.39;77.71;98303.53;5076241;27;104130;-62
2022/08/26 03:58:19;;;;;;;9.35;8.45;;;;;;;20.29;77.94;98308.31;5075717;27;103330;-62
2022/08/26 04:00:47;;;;;;;10.43;9.30;;;;;;;20.01;79.29;98316.91;5079245;27;102677;-62
2022/08/26 04:06:05;;;;;;;10.57;9.52;;;;;;;19.30;83.96;98310.94;5075731;27;104137;-63
2022/08/26 04:08:33;;;;;;;10.18;9.18;;;;;;;19.26;84.79;98314.97;5082329;27;102994;-62
2022/08/26 04:11:03;;;;;;;9.40;8.50;;;;;;;19.66;82.92;98312.13;5080854;27;103042;-61
2022/08/26 04:13:31;;;;;;;10.45;9.55;;;;;;;19.43;83.89;98314.75;5080715;27;102719;-62
2022/08/26 04:15:59;;;;;;;8.70;7.90;;;;;;;19.73;82.23;98314.94;5082862;27;103301;-62
2022/08/26 04:18:31;;;;;;;6.10;5.60;;;;;;;20.12;79.17;98308.44;5063639;27;104022;-62
2022/08/26 04:21:06;;;;;;;9.23;8.43;;;;;;;20.23;78.43;98315.22;5083309;27;103103;-61
2022/08/26 04:23:34;;;;;;;8.70;7.90;;;;;;;20.27;77.71;98313.03;5077347;27;104193;-62
2022/08/26 04:26:16;;;;;;;8.90;8.00;;;;;;;20.15;78.56;98310.72;5060924;27;104133;-61
2022/08/26 04:28:44;;;;;;;9.40;8.52;;;;;;;20.10;79.31;98312.28;5059063;27;103523;-62
2022/08/26 04:31:13;;;;;;;10.20;9.05;;;;;;;19.89;81.05;98307.59;5082713;27;102581;-62
2022/08/26 04:33:42;;;;;;;10.10;9.20;;;;;;;19.79;82.04;98307.00;5064533;27;104038;-62
2022/08/26 04:36:10;;;;;;;11.00;10.00;;;;;;;19.52;84.03;98304.84;5058158;27;103386;-62
2022/08/26 04:38:39;;;;;;;10.65;9.55;;;;;;;19.65;83.93;98299.72;5081621;27;103305;-61
2022/08/26 04:41:07;;;;;;;9.10;8.30;;;;;;;20.06;81.61;98309.16;5063453;27;102806;-62
2022/08/26 04:43:45;;;;;;;12.75;10.70;;;;;;;19.77;83.44;98306.34;5062547;27;103188;-62
2022/08/26 04:46:16;;;;;;;9.02;8.23;;;;;;;19.97;82.49;98304.84;5079016;27;103265;-62
2022/08/26 04:48:44;;;;;;;7.90;7.25;;;;;;;20.20;80.87;98299.47;5081457;27;103536;-62
2022/08/26 04:51:12;;;;;;;8.27;7.47;;;;;;;20.37;79.52;98297.53;5063382;27;103398;-62
2022/08/26 04:53:40;;;;;;;10.52;8.38;;;;;;;20.49;78.84;98304.13;5082360;27;102602;-62
2022/08/26 04:56:08;;;;;;;10.43;9.32;;;;;;;20.10;80.92;98305.09;5080457;27;103276;-61
2022/08/26 04:58:37;;;;;;;11.02;9.93;;;;;;;20.01;82.28;98311.53;5078100;27;103250;-61
2022/08/26 05:01:07;;;;;;;6.75;6.18;;;;;;;20.50;78.59;98308.44;5082024;27;102647;-62
2022/08/26 05:03:36;;;;;;;7.18;6.53;;;;;;;20.71;76.84;98309.41;5080830;27;103028;-62
2022/08/26 05:06:07;;;;;;;5.85;5.35;;;;;;;20.80;76.86;98318.19;5082152;27;104043;-62
2022/08/26 05:08:38;;;;;;;9.48;8.57;;;;;;;20.82;77.30;98313.50;5077373;27;103190;-62
2022/08/26 05:11:08;;;;;;;8.50;7.80;;;;;;;20.86;78.21;98312.09;5079067;27;102624;-62
2022/08/26 05:13:38;;;;;;;7.23;6.63;;;;;;;20.99;76.84;98306.09;5080638;27;103842;-62
2022/08/26 05:16:10;;;;;;;6.88;6.38;;;;;;;21.10;76.58;98313.69;5080221;27;103332;-62
2022/08/26 05:18:43;;;;;;;5.53;5.13;;;;;;;21.25;75.33;98320.72;5078650;27;103259;-62
2022/08/26 05:21:18;;;;;;;9.07;8.17;;;;;;;21.32;75.53;98318.97;5081814;27;102632;-62
2022/08/26 05:23:47;;;;;;;8.63;7.83;;;;;;;21.27;76.41;98321.38;5081593;27;102987;-61
2022/08/26 05:26:16;;;;;;;7.93;7.22;;;;;;;21.42;75.34;98312.47;5081410;27;104177;-62
2022/08/26 05:28:49;;;;;;;9.75;8.18;;;;;;;21.55;74.84;98315.31;5081507;27;103184;-62
2022/08/26 05:31:29;;;;;;;5.88;5.38;;;;;;;21.67;74.05;98316.47;5060401;27;102722;-62
2022/08/26 05:33:58;;;;;;;6.47;5.88;;;;;;;21.78;73.81;98313.28;5076805;27;102680;-62
2022/08/26 05:36:35;;;;;;;7.10;6.40;;;;;;;21.86;73.74;98315.84;5078374;27;103357;-62
2022/08/26 05:39:08;;;;;;;9.32;8.40;;;;;;;21.72;74.28;98330.19;5080739;27;103185;-62
2022/08/26 05:41:39;;;;;;;7.87;6.90;;;;;;;21.83;73.51;98321.63;5078092;27;103024;-62
2022/08/26 05:44:12;;;;;;;7.20;6.50;;;;;;;21.79;73.77;98321.16;5058453;27;102963;-62
2022/08/26 05:46:43;;;;;;;7.70;7.00;;;;;;;21.82;73.80;98330.69;5078151;27;103946;-73
2022/08/26 05:49:12;;;;;;;5.30;4.80;;;;;;;22.02;72.36;98326.38;5078634;27;103278;-62
2022/08/26 05:51:45;;;;;;;8.87;7.67;;;;;;;21.96;72.50;98335.22;5060373;27;103172;-62
2022/08/26 05:54:16;;;;;;;7.20;6.30;;;;;;;22.04;72.21;98339.63;5080905;27;104066;-62
2022/08/26 05:56:49;;;;;;;5.77;5.27;;;;;;;22.21;71.22;98331.13;5080239;27;103292;-62
2022/08/26 05:59:20;;;;;;;7.53;6.85;;;;;;;22.17;71.34;98339.78;5080586;27;103351;-72
2022/08/26 06:01:54;;;;;;;7.55;6.85;;;;;;;22.22;70.97;98337.34;5079281;27;102944;-73
2022/08/26 06:04:24;;;;;;;8.85;7.75;;;;;;;22.19;70.71;98343.94;5050717;27;102664;-73
2022/08/26 06:06:55;;;;;;;7.93;6.67;;;;;;;22.31;70.68;98339.72;5059881;27;103969;-72
2022/08/26 06:09:23;;;;;;;8.07;6.82;;;;;;;22.22;71.04;98338.19;5075199;27;103248;-62
2022/08/26 06:11:51;;;;;;;6.75;6.10;;;;;;;22.26;70.53;98344.00;5078934;27;103151;-62
2022/08/26 06:14:20;;;;;;;7.40;6.70;;;;;;;22.37;69.96;98352.38;5075893;27;103892;-62
2022/08/26 06:16:48;;;;;;;5.55;5.10;;;;;;;22.47;69.67;98352.06;5081938;27;103258;-62
2022/08/26 06:19:18;;;;;;;8.10;7.03;;;;;;;22.46;69.82;98345.84;5081706;27;103206;-62
2022/08/26 06:21:51;;;;;;;7.10;6.50;;;;;;;22.44;69.59;98353.28;5078172;27;102870;-62
2022/08/26 06:27:08;;;;;;;6.07;5.55;;;;;;;22.51;68.96;98353.34;5058433;27;104179;-72
2022/08/26 06:29:38;;;;;;;6.38;5.55;;;;;;;22.67;68.71;98354.94;5057276;27;103257;-72
2022/08/26 06:32:06;;;;;;;5.90;5.40;;;;;;;22.79;68.48;98356.06;5080266;27;103012;-72
2022/08/26 06:34:37;;;;;;;9.93;7.97;;;;;;;22.57;69.13;98357.13;5080093;27;103888;-73
2022/08/26 06:37:07;;;;;;;8.80;7.20;;;;;;;22.71;68.54;98358.91;5058280;27;103752;-72
2022/08/26 06:39:35;;;;;;;8.77;7.63;;;;;;;22.75;68.84;98355.63;5079928;27;103175;-72
2022/08/26 06:42:08;;;;;;;8.02;7.28;;;;;;;22.84;68.59;98359.84;5062626;27;103269;-73
2022/08/26 06:44:37;;;;;;;8.27;7.20;;;;;;;22.98;68.26;98360.75;5057903;27;104030;-72
2022/08/26 06:47:08;;;;;;;7.78;6.95;;;;;;;23.15;67.81;98361.28;5077853;27;104434;-72
2022/08/26 06:49:37;;;;;;;7.53;6.82;;;;;;;23.32;67.18;98363.44;5077277;27;103203;-72
2022/08/26 06:52:06;;;;;;;8.60;7.72;;;;;;;23.26;67.26;98366.94;5079552;27;102971;-72
2022/08/26 06:54:35;;;;;;;9.75;7.40;;;;;;;23.27;66.81;98357.81;5062532;27;103969;-72
2022/08/26 06:57:07;;;;;;;8.38;6.25;;;;;;;23.51;66.77;98368.13;5055409;27;103863;-72
2022/08/26 06:59:35;;;;;;;7.17;6.47;;;;;;;23.69;66.01;98361.38;5058209;27;103257;-72
2022/08/26 07:02:04;;;;;;;7.60;6.90;;;;;;;23.83;65.58;98357.69;5060906;27;102698;-72
2022/08/26 07:04:35;;;;;;;8.57;7.68;;;;;;;23.66;65.88;98360.72;5056484;27;102707;-72
2022/08/26 07:07:04;;;;;;;7.05;6.22;;;;;;;23.89;65.56;98359.56;5058270;27;103274;-72
2022/08/26 07:09:34;;;;;;;8.13;7.32;;;;;;;23.94;65.04;98351.69;5058642;27;103236;-72
2022/08/26 07:12:04;;;;;;;6.70;6.05;;;;;;;24.08;65.19;98359.59;5079289;27;103042;-73
2022/08/26 07:14:34;;;;;;;7.55;6.70;;;;;;;23.91;65.64;98363.72;5072063;27;104080;-62
2022/08/26 07:17:02;;;;;;;6.40;5.80;;;;;;;24.18;65.08;98359.25;5061321;27;103594;-62
2022/08/26 07:19:30;;;;;;;7.93;6.78;;;;;;;24.25;64.95;98365.50;5076788;27;103245;-62
2022/08/26 07:22:00;;;;;;;7.45;6.75;;;;;;;24.47;63.85;98364.28;5060640;27;102625;-63
2022/08/26 07:24:30;;;;;;;8.50;7.60;;;;;;;24.53;63.25;98363.44;5076933;27;103359;-63
2022/08/26 07:27:01;;;;;;;6.93;6.32;;;;;;;24.74;63.29;98362.38;5079923;27;103988;-62
2022/08/26 07:29:30;;;;;;;7.73;6.77;;;;;;;24.78;62.84;98355.53;5061656;27;103215;-63
2022/08/26 07:31:58;;;;;;;7.70;7.00;;;;;;;24.97;62.21;98364.69;5078863;27;102787;-62
2022/08/26 07:34:27;;;;;;;10.30;7.85;;;;;;;24.61;62.73;98365.09;5078671;27;102965;-62
2022/08/26 07:36:55;;;;;;;12.60;8.55;;;;;;;24.18;63.98;98370.03;5077722;27;104359;-62
2022/08/26 07:39:27;;;;;;;9.13;7.45;;;;;;;24.41;64.00;98365.09;5074084;27;103208;-63
2022/08/26 07:42:00;;;;;;;7.90;7.10;;;;;;;24.75;62.51;98364.06;5081230;27;103061;-63
2022/08/26 07:44:35;;;;;;;8.43;6.85;;;;;;;25.00;61.79;98380.47;5079419;27;102685;-63
2022/08/26 07:47:03;;;;;;;8.00;7.20;;;;;;;25.07;61.45;98371.31;5077599;27;103413;-62
2022/08/26 07:49:51;;;;;;;6.82;5.93;;;;;;;25.28;62.13;98370.25;5081429;27;103144;-63
2022/08/26 07:52:20;;;;;;;10.70;8.27;;;;;;;25.02;61.02;98375.69;5063322;27;102735;-62
2022/08/26 07:54:53;;;;;;;8.43;7.53;;;;;;;25.03;61.45;98369.25;5080580;27;102615;-63
2022/08/26 07:57:22;;;;;;;7.43;6.73;;;;;;;25.17;61.50;98373.59;5063803;27;103654;-63
2022/08/26 07:59:51;;;;;;;7.90;6.70;;;;;;;25.31;61.02;98373.34;5082671;27;103038;-62
2022/08/26 08:02:22;;;;;;;8.77;7.72;;;;;;;25.43;60.57;98380.81;5081639;27;103026;-63
2022/08/26 08:04:51;;;;;;;10.43;7.23;;;;;;;25.41;61.67;98372.91;5080919;27;102862;-63
2022/08/26 08:07:20;;;;;;;8.75;6.90;;;;;;;25.77;60.63;98383.19;5081302;27;104086;-63
2022/08/26 08:10:06;;;;;;;7.50;6.23;;;;;;;25.99;59.24;98381.03;5082324;27;103184;-63
2022/08/26 08:12:41;;;;;;;8.10;7.30;;;;;;;25.86;59.46;98374.63;5082662;27;102856;-62
2022/08/26 08:15:12;;;;;;;8.55;6.75;;;;;;;25.90;59.51;98377.75;5079006;27;103049;-63
2022/08/26 08:17:43;;;;;;;9.07;6.53;;;;;;;26.09;59.15;98381.38;5060597;27;103289;-63
2022/08/26 08:20:21;;;;;;;8.30;7.38;;;;;;;25.91;59.26;98373.97;5063996;27;103199;-63
2022/08/26 08:22:52;;;;;;;5.57;5.07;;;;;;;26.45;57.98;98371.59;5060832;27;102704;-63
2022/08/26 08:25:22;;;;;;;8.83;6.97;;;;;;;26.35;58.69;98375.84;5078062;27;102783;-63
2022/08/26 08:27:51;;;;;;;8.95;7.30;;;;;;;26.19;58.35;98371.75;5076369;27;103263;-64
2022/08/26 08:30:21;;;;;;;7.65;6.90;;;;;;;26.49;57.44;98377.41;5080387;27;103390;-63
2022/08/26 08:32:50;;;;;;;9.32;7.63;;;;;;;26.40;57.19;98373.28;5062515;27;102865;-64
2022/08/26 08:35:21;;;;;;;9.80;7.03;;;;;;;26.40;57.39;98371.41;5077774;27;102908;-63
2022/08/26 08:37:53;;;;;;;7.72;5.93;;;;;;;26.71;56.74;98370.56;5061316;27;104291;-63
2022/08/26 08:40:26;;;;;;;9.50;7.28;;;;;;;26.32;56.95;98370.84;5082169;27;103333;-64
2022/08/26 08:43:02;;;;;;;6.47;5.37;;;;;;;26.76;57.06;98359.03;5079992;27;102696;-63
2022/08/26 08:45:36;;;;;;;7.90;6.80;;;;;;;26.94;56.15;98359.13;5081552;27;102815;-63
2022/08/26 08:48:20;;;;;;;6.63;6.03;;;;;;;26.94;56.24;98354.53;5078800;27;103458;-64
2022/08/26 08:51:03;;;;;;;8.73;6.68;;;;;;;27.13;55.59;98363.53;5062346;27;103568;-63
2022/08/26 08:53:35;;;;;;;6.40;5.90;;;;;;;27.03;56.44;98358.59;5077761;27;102667;-63
2022/08/26 08:56:12;;;;;;;9.15;6.50;;;;;;;27.28;56.91;98360.44;5081874;27;103859;-63
2022/08/26 08:58:52;;;;;;;7.35;6.50;;;;;;;27.44;54.51;98355.28;5080680;27;103599;-63
2022/08/26 09:01:30;;;;;;;6.25;5.25;;;;;;;28.02;53.70;98357.44;5054458;27;103342;-63
2022/08/26 09:04:20;;;;;;;8.02;5.93;;;;;;;28.05;52.47;98354.31;5078682;27;102698;-64
2022/08/26 09:06:52;;;;;;;6.63;5.77;;;;;;;28.12;52.14;98355.91;5074765;27;102842;-64
2022/08/26 09:09:23;;;;;;;7.20;5.57;;;;;;;28.87;49.22;98334.44;5060327;27;103305;-63
2022/08/26 09:11:53;;;;;;;5.45;4.95;;;;;;;29.01;48.51;98344.00;5079388;27;103204;-63
2022/08/26 09:14:22;;;;;;;4.97;4.55;;;;;;;29.78;46.84;98347.34;5077038;27;102573;-63
2022/08/26 09:17:03;;;;;;;6.88;5.60;;;;;;;30.05;47.16;98343.00;5057458;27;102702;-71
2022/08/26 09:19:41;;;;;;;7.80;5.07;;;;;;;30.41;46.25;98347.22;5076119;27;103168;-72
2022/08/26 09:22:25;;;;;;;5.10;4.60;;;;;;;30.72;45.20;98343.09;5075755;27;103836;-72
2022/08/26 09:24:54;;;;;;;4.17;3.87;;;;;;;32.05;42.75;98331.91;5076270;27;102855;-71
2022/08/26 09:27:37;;;;;;;4.60;4.00;;;;;;;31.85;41.44;98342.56;5079395;27;104429;-72
2022/08/26 09:30:09;;;;;;;5.00;4.13;;;;;;;31.34;41.67;98325.53;5076174;27;103878;-72
2022/08/26 09:32:39;;;;;;;4.78;3.60;;;;;;;31.90;42.24;98332.53;5060702;27;103789;-72
2022/08/26 09:35:23;;;;;;;6.15;4.63;;;;;;;32.86;41.46;98316.25;5081646;27;102899;-72
2022/08/26 09:37:51;;;;;;;8.93;5.20;;;;;;;32.82;41.05;98317.84;5063085;27;103046;-72
2022/08/26 09:40:26;;;;;;;6.53;4.60;;;;;;;32.20;41.54;98318.38;5062933;27;103936;-72
2022/08/26 09:43:08;;;;;;;6.28;4.78;;;;;;;33.45;40.03;98314.97;5062403;27;103262;-71
2022/08/26 09:45:40;;;;;;;4.82;4.10;;;;;;;33.67;39.06;98310.16;5078104;27;102967;-72
2022/08/26 09:48:27;;;;;;;5.88;4.40;;;;;;;33.66;39.43;98305.78;5078055;27;103840;-71
2022/08/26 09:50:59;;;;;;;5.18;4.60;;;;;;;34.25;38.57;98298.00;5075164;27;103286;-72
2022/08/26 09:53:30;;;;;;;9.68;5.10;;;;;;;33.08;40.61;98287.69;5079762;27;103195;-72
2022/08/26 09:56:15;;;;;;;8.90;4.93;;;;;;;33.08;40.66;98286.88;5078726;27;102861;-71
2022/08/26 09:58:47;;;;;;;4.95;4.40;;;;;;;34.38;38.13;98274.72;5078917;27;102688;-71
2022/08/26 10:01:28;;;;;;;6.60;5.47;;;;;;;34.18;39.06;98270.03;5078241;27;104089;-72
2022/08/26 10:04:06;;;;;;;8.25;5.90;;;;;;;34.71;37.42;98265.94;5078037;27;103342;-72
2022/08/26 10:06:38;;;;;;;9.80;6.53;;;;;;;34.61;38.91;98263.19;5080253;27;102777;-71
2022/08/26 10:09:36;;;;;;;8.13;5.20;;;;;;;34.99;36.88;98274.66;5077135;27;102720;-71
2022/08/26 10:12:10;;;;;;;12.88;6.07;;;;;;;34.63;38.22;98269.25;5059075;27;103747;-71
2022/08/26 10:14:42;;;;;;;12.70;6.37;;;;;;;31.45;42.57;98266.44;5057702;27;103310;-71
2022/08/26 10:17:23;;;;;;;11.68;6.35;;;;;;;32.35;40.87;98257.56;5076234;27;103080;-72
2022/08/26 10:19:56;;;;;;;10.95;5.78;;;;;;;33.81;38.74;98252.97;5073658;27;102810;-72
2022/08/26 10:22:30;;;;;;;10.50;6.32;;;;;;;33.00;40.11;98246.28;5057600;27;103273;-71
2022/08/26 10:25:03;;;;;;;10.85;6.10;;;;;;;32.13;41.21;98250.31;5059236;27;103361;-72
2022/08/26 10:27:39;;;;;;;10.98;6.10;;;;;;;33.77;40.01;98241.72;5080373;27;102850;-71
2022/08/26 10:30:20;;;;;;;10.75;6.57;;;;;;;33.53;39.22;98246.00;5054906;27;103082;-71
2022/08/26 10:32:55;;;;;;;10.30;6.30;;;;;;;32.19;40.86;98250.34;5073675;27;104089;-71
2022/08/26 10:35:25;;;;;;;10.73;6.30;;;;;;;33.21;40.32;98251.63;5073285;27;103272;-71
2022/08/26 10:37:56;;;;;;;10.88;6.47;;;;;;;34.08;39.96;98244.56;5059590;27;103106;-71
2022/08/26 10:40:27;;;;;;;9.13;6.20;;;;;;;34.26;38.18;98239.34;5078432;27;102736;-70
2022/08/26 10:43:02;;;;;;;15.30;6.60;;;;;;;33.91;38.45;98241.22;5061317;27;103744;-71
2022/08/26 10:45:38;;;;;;;11.27;6.38;;;;;;;33.73;39.40;98243.38;5080271;27;103195;-71
2022/08/26 10:48:17;;;;;;;9.40;6.22;;;;;;;33.57;39.75;98240.84;5080194;27;102891;-71
2022/08/26 10:50:47;;;;;;;8.83;6.33;;;;;;;34.30;39.20;98234.16;5061286;27;104089;-71
2022/08/26 10:53:22;;;;;;;11.53;6.67;;;;;;;32.68;41.03;98228.06;5077170;27;103719;-71
2022/08/26 10:55:59;;;;;;;9.55;6.70;;;;;;;32.00;40.68;98225.28;5060777;27;104228;-71
2022/08/26 10:58:37;;;;;;;12.85;6.85;;;;;;;31.39;42.14;98221.88;5057426;27;102732;-72
2022/08/26 11:04:11;;;;;;;11.83;7.00;;;;;;;32.00;41.47;98214.38;5076488;27;105833;-71
2022/08/26 11:06:40;;;;;;;10.70;6.85;;;;;;;32.04;40.69;98210.03;5076556;27;103139;-71
2022/08/26 11:09:12;;;;;;;9.85;6.38;;;;;;;33.22;39.10;98211.41;5074410;27;103340;-71
2022/08/26 11:11:50;;;;;;;7.43;5.80;;;;;;;34.37;36.99;98207.25;5079741;27;102792;-71
2022/08/26 11:14:36;;;;;;;9.70;6.57;;;;;;;34.17;36.96;98197.13;5059755;27;103372;-71
2022/08/26 11:17:56;;;;;;;8.53;5.13;;;;;;;35.61;35.34;98195.41;5076530;27;103165;-71
2022/08/26 11:20:37;;;;;;;7.88;6.22;;;;;;;33.79;37.27;98201.19;5075903;27;103179;-65
2022/08/26 11:23:47;;;;;;;12.52;6.50;;;;;;;34.50;37.89;98198.47;5076325;27;102877;-65
2022/08/26 11:26:18;;;;;;;8.52;5.93;;;;;;;34.63;37.81;98203.44;4970934;28;103379;-65
2022/08/26 11:29:11;;;;;;;12.07;6.70;;;;;;;32.95;40.70;98200.59;4984806;28;103606;-66
2022/08/26 11:31:57;;;;;;;11.10;6.90;;;;;;;31.74;42.43;98198.81;5049221;27;102892;-65
2022/08/26 11:34:53;;;;;;;10.15;6.50;;;;;;;33.13;39.69;98181.00;5076703;27;103470;-66
2022/08/26 11:37:31;;;;;;;12.70;6.72;;;;;;;32.51;40.39;98186.34;5073523;27;103254;-66
2022/08/26 11:40:03;;;;;;;9.10;6.23;;;;;;;32.31;40.47;98182.69;5075445;27;103200;-72
2022/08/26 11:42:39;;;;;;;10.88;6.13;;;;;;;32.46;40.79;98182.75;5079592;27;102964;-72
2022/08/26 11:45:18;;;;;;;11.10;6.07;;;;;;;32.92;39.57;98178.41;5076884;27;102752;-71
2022/08/26 11:47:47;;;;;;;10.30;6.57;;;;;;;32.65;39.60;98178.53;5077471;27;103964;-65
2022/08/26 11:50:19;;;;;;;10.68;6.80;;;;;;;32.99;40.29;98168.88;5078910;27;103249;-65
2022/08/26 11:52:53;;;;;;;10.40;6.20;;;;;;;34.47;38.71;98163.41;5074076;27;102797;-66
2022/08/26 11:55:22;;;;;;;13.10;6.60;;;;;;;34.81;38.21;98175.38;5076262;27;103163;-66
2022/08/26 11:57:54;;;;;;;13.60;6.87;;;;;;;33.29;39.50;98179.16;5071567;27;103219;-66
2022/08/26 12:00:24;;;;;;;13.60;6.85;;;;;;;33.30;40.10;98175.31;5076937;27;103414;-66